createdAt,value
2022-10-12T00:01:11.758Z,0.01
2022-10-12T00:05:09.727Z,0.93
2022-10-12T00:09:09.042Z,0.93
2022-10-12T00:13:09.158Z,0.01
2022-10-12T00:17:08.940Z,0.01
2022-10-12T00:21:09.430Z,0.01
2022-10-12T00:25:14.263Z,0.01
2022-10-12T00:29:09.631Z,0.91
2022-10-12T00:33:09.553Z,0.91
2022-10-12T00:37:09.069Z,0.01
2022-10-12T00:41:09.027Z,0.01
2022-10-12T00:45:09.283Z,0.01
2022-10-12T00:49:08.794Z,0.89
2022-10-12T00:53:09.414Z,0.01
2022-10-12T00:57:09.537Z,0.01
2022-10-12T01:01:12.795Z,0.01
2022-10-12T01:05:09.219Z,0.88
2022-10-12T01:09:08.992Z,0.88
2022-10-12T01:13:09.717Z,0.01
2022-10-12T01:17:09.470Z,0.87
2022-10-12T01:21:08.818Z,0.87
2022-10-12T01:25:09.005Z,0.01
2022-10-12T01:29:09.819Z,0.86
2022-10-12T01:33:09.412Z,0.86
2022-10-12T01:37:09.598Z,0.01
2022-10-12T01:41:09.530Z,0.01
2022-10-12T01:45:16.361Z,0.01
2022-10-12T01:49:09.573Z,0.01
2022-10-12T01:53:09.360Z,0.01
2022-10-12T01:57:09.078Z,0.01
2022-10-12T02:01:13.271Z,0.84
2022-10-12T02:05:09.639Z,0.83
2022-10-12T02:09:09.390Z,0.83
2022-10-12T02:13:09.419Z,0.01
2022-10-12T02:17:09.550Z,0.83
2022-10-12T02:21:09.048Z,0.83
2022-10-12T02:25:09.762Z,0.83
2022-10-12T02:29:10.057Z,0.83
2022-10-12T02:33:09.311Z,0.83
2022-10-12T02:37:09.037Z,0.01
2022-10-12T02:41:09.738Z,0.83
2022-10-12T02:45:09.248Z,0.83
2022-10-12T02:49:09.593Z,0.83
2022-10-12T02:53:09.673Z,0.83
2022-10-12T02:57:09.580Z,0.83
2022-10-12T03:01:12.937Z,0.83
2022-10-12T03:05:09.273Z,0.83
2022-10-12T03:09:08.681Z,0.83
2022-10-12T03:13:12.848Z,0.83
2022-10-12T03:17:09.434Z,0.83
2022-10-12T03:21:09.160Z,0.83
2022-10-12T03:25:09.184Z,0.83
2022-10-12T03:29:09.752Z,0.83
2022-10-12T03:33:09.446Z,0.83
2022-10-12T03:37:09.092Z,0.83
2022-10-12T03:41:15.541Z,0.83
2022-10-12T03:45:09.070Z,0.83
2022-10-12T03:49:12.483Z,4.8
2022-10-12T03:53:09.751Z,4.8
2022-10-12T03:57:08.921Z,4.8
2022-10-12T04:01:12.336Z,4.8
2022-10-12T04:05:09.576Z,4.8
2022-10-12T04:09:13.415Z,4.8
2022-10-12T04:13:09.600Z,4.8
2022-10-12T04:17:15.368Z,4.8
2022-10-12T04:21:08.830Z,4.8
2022-10-12T04:25:08.892Z,4.8
2022-10-12T04:29:10.018Z,4.8
2022-10-12T04:33:09.190Z,4.8
2022-10-12T04:37:09.361Z,4.8
2022-10-12T04:41:08.886Z,4.8
2022-10-12T04:45:14.816Z,4.8
2022-10-12T04:49:08.832Z,4.8
2022-10-12T04:53:09.477Z,0.07
2022-10-12T04:57:10.880Z,0.07
2022-10-12T05:01:12.040Z,0.02
2022-10-12T05:05:09.430Z,0.02
2022-10-12T05:09:13.206Z,0.02
2022-10-12T05:13:09.781Z,0.02
2022-10-12T05:17:09.482Z,0.02
2022-10-12T05:21:09.404Z,0.02
2022-10-12T05:25:16.047Z,0.02
2022-10-12T05:29:15.194Z,0.02
2022-10-12T05:33:09.539Z,0.02
2022-10-12T05:37:09.525Z,0.02
2022-10-12T05:41:12.270Z,0.02
2022-10-12T05:45:09.188Z,0.02
2022-10-12T05:49:09.615Z,0.02
2022-10-12T05:53:09.386Z,0.02
2022-10-12T05:57:09.775Z,0.02
2022-10-12T06:01:11.490Z,0.02
2022-10-12T06:05:08.817Z,0.02
2022-10-12T06:09:08.862Z,0.02
2022-10-12T06:13:09.151Z,0.02
2022-10-12T06:17:13.460Z,0.02
2022-10-12T06:21:44.618Z,0.02
2022-10-12T06:25:09.309Z,0.02
2022-10-12T06:29:09.546Z,0.02
2022-10-12T06:33:09.332Z,0.02
2022-10-12T06:37:37.040Z,0.02
2022-10-12T06:41:09.409Z,0.02
2022-10-12T06:45:08.697Z,0.02
2022-10-12T06:49:14.822Z,0.02
2022-10-12T06:53:10.314Z,0.02
2022-10-12T06:57:10.171Z,0.02
2022-10-12T07:01:10.518Z,0.02
2022-10-12T07:05:08.953Z,0.02
2022-10-12T07:09:09.501Z,0.02
2022-10-12T07:13:09.234Z,0.02
2022-10-12T07:17:08.842Z,0.02
2022-10-12T07:21:09.322Z,0.02
2022-10-12T07:25:09.209Z,0.02
2022-10-12T07:29:09.724Z,0.02
2022-10-12T07:33:09.143Z,0.02
2022-10-12T07:37:45.004Z,0.02
2022-10-12T07:41:08.864Z,0.02
2022-10-12T07:45:09.464Z,0.02
2022-10-12T07:49:12.920Z,0.02
2022-10-12T07:53:09.377Z,0.02
2022-10-12T07:57:09.302Z,0.02
2022-10-12T08:01:15.214Z,0.02
2022-10-12T08:05:09.761Z,0.02
2022-10-12T08:09:09.346Z,0.13
2022-10-12T08:13:14.571Z,0.03
2022-10-12T08:17:09.079Z,0.03
2022-10-12T08:21:09.249Z,0.02
2022-10-12T08:25:09.747Z,0.01
2022-10-12T08:29:09.550Z,0.01
2022-10-12T08:33:10.513Z,0.01
2022-10-12T08:37:09.802Z,0.01
2022-10-12T08:41:11.386Z,0.01
2022-10-12T08:45:09.445Z,0.01
2022-10-12T08:49:09.622Z,0.01
2022-10-12T08:53:09.175Z,0.01
2022-10-12T08:57:09.286Z,0.01
2022-10-12T09:01:15.605Z,0.01
2022-10-12T09:05:08.869Z,0.01
2022-10-12T09:09:09.474Z,0.01
2022-10-12T09:13:09.411Z,0.01
2022-10-12T09:17:08.867Z,0.01
2022-10-12T09:21:09.207Z,0.01
2022-10-12T09:25:09.407Z,0.01
2022-10-12T09:29:10.389Z,0.01
2022-10-12T09:33:08.857Z,7.11
2022-10-12T09:37:09.550Z,2.89
2022-10-12T09:41:09.242Z,0.03
2022-10-12T09:45:09.011Z,0.02
2022-10-12T09:49:10.567Z,1.44
2022-10-12T09:53:09.432Z,0.01
2022-10-12T09:57:13.004Z,1.25
2022-10-12T10:01:15.122Z,1.16
2022-10-12T10:05:09.051Z,0.01
2022-10-12T10:09:09.064Z,1.08
2022-10-12T10:13:09.231Z,0.01
2022-10-12T10:17:09.297Z,0.01
2022-10-12T10:21:09.786Z,0.01
2022-10-12T10:25:12.011Z,0.01
2022-10-12T10:29:10.165Z,0.99
2022-10-12T10:33:08.990Z,0.01
2022-10-12T10:37:09.230Z,0.01
2022-10-12T10:41:10.021Z,0.01
2022-10-12T10:45:09.858Z,0.94
2022-10-12T10:49:09.430Z,0.01
2022-10-12T10:53:09.580Z,0.01
2022-10-12T10:57:09.007Z,0.01
2022-10-12T11:01:46.379Z,0.01
2022-10-12T11:05:09.478Z,0.01
2022-10-12T11:09:09.734Z,1.01
2022-10-12T11:13:16.631Z,0.01
2022-10-12T11:17:09.745Z,0.99
2022-10-12T11:21:15.202Z,0.99
2022-10-12T11:25:09.077Z,0.01
2022-10-12T11:29:09.778Z,0.01
2022-10-12T11:33:09.020Z,0.94
2022-10-12T11:37:40.529Z,0.01
2022-10-12T11:42:43.177Z,0.01
2022-10-12T11:45:15.471Z,0.98
2022-10-12T11:49:12.389Z,0.01
2022-10-12T11:53:14.244Z,0.97
2022-10-12T11:57:09.146Z,0.01
2022-10-12T12:01:13.601Z,0.96
2022-10-12T12:05:50.119Z,0.01
2022-10-12T12:09:09.359Z,0.01
2022-10-12T12:13:09.190Z,0.91
2022-10-12T12:17:08.919Z,0.91
2022-10-12T12:21:09.253Z,0.01
2022-10-12T12:25:09.387Z,0.01
2022-10-12T12:29:09.900Z,0.01
2022-10-12T12:33:09.550Z,0.01
2022-10-12T12:37:09.225Z,0.01
2022-10-12T12:41:09.650Z,0.01
2022-10-12T12:45:09.405Z,0.01
2022-10-12T12:49:09.715Z,0.01
2022-10-12T12:53:09.628Z,0.01
2022-10-12T12:57:09.733Z,0.9
2022-10-12T13:01:13.180Z,0.01
2022-10-12T13:05:09.404Z,0.91
2022-10-12T13:09:17.712Z,0.01
2022-10-12T13:13:09.095Z,0.01
2022-10-12T13:18:45.711Z,0.01
2022-10-12T13:21:09.209Z,0.88
2022-10-12T13:25:08.931Z,0.9
2022-10-12T13:29:10.395Z,0.01
2022-10-12T13:33:09.521Z,0.01
2022-10-12T13:37:09.176Z,0.89
2022-10-12T13:41:09.741Z,0.9
2022-10-12T13:45:09.271Z,0.92
2022-10-12T13:49:39.290Z,0.01
2022-10-12T13:53:14.568Z,0.88
2022-10-12T14:01:12.361Z,0.87
2022-10-12T14:05:09.360Z,0.01
2022-10-12T14:09:09.474Z,0.01
2022-10-12T14:13:10.763Z,0.01
2022-10-12T14:17:09.057Z,0.89
2022-10-12T14:21:09.275Z,0.01
2022-10-12T14:25:09.014Z,0.88
2022-10-12T14:29:09.211Z,0.88
2022-10-12T14:33:11.254Z,0.01
2022-10-12T14:37:09.562Z,0.88
2022-10-12T14:41:09.639Z,0.01
2022-10-12T14:45:08.993Z,0.88
2022-10-12T14:49:09.180Z,0.88
2022-10-12T14:53:09.411Z,0.88
2022-10-12T14:57:09.504Z,0.01
2022-10-12T15:01:12.961Z,0.89
2022-10-12T15:05:09.550Z,0.01
2022-10-12T15:09:09.632Z,0.87
2022-10-12T15:13:08.835Z,0.88
2022-10-12T15:17:08.831Z,0.01
2022-10-12T15:21:12.373Z,0.87
2022-10-12T15:25:09.235Z,0.01
2022-10-12T15:29:10.073Z,0.01
2022-10-12T15:33:09.707Z,0.84
2022-10-12T15:37:09.525Z,0.01
2022-10-12T15:41:09.278Z,0.84
2022-10-12T15:45:08.888Z,0.84
2022-10-12T15:49:09.012Z,0.83
2022-10-12T15:53:09.673Z,0.01
2022-10-12T15:57:09.788Z,0.83
2022-10-12T16:01:11.926Z,0.01
2022-10-12T16:05:09.279Z,0.01
2022-10-12T16:09:08.942Z,0.01
2022-10-12T16:13:08.923Z,0.01
2022-10-12T16:17:10.256Z,0.01
2022-10-12T16:21:16.383Z,0.01
2022-10-12T16:25:08.980Z,0.01
2022-10-12T16:29:09.967Z,0.81
2022-10-12T16:33:09.623Z,0.81
2022-10-12T16:37:09.230Z,0.8
2022-10-12T16:41:09.802Z,0.01
2022-10-12T16:45:09.011Z,0.79
2022-10-12T16:49:08.938Z,0.79
2022-10-12T16:53:09.653Z,0.01
2022-10-12T16:57:13.778Z,0.01
2022-10-12T17:01:12.929Z,0.01
2022-10-12T17:05:09.886Z,0.01
2022-10-12T17:09:12.322Z,0.01
2022-10-12T17:13:09.814Z,0.78
2022-10-12T17:17:09.182Z,0.78
2022-10-12T17:21:14.728Z,0.77
2022-10-12T17:25:09.822Z,0.01
2022-10-12T17:29:09.427Z,0.01
2022-10-12T17:33:08.738Z,0.76
2022-10-12T17:37:13.130Z,0.75
2022-10-12T17:41:09.252Z,0.75
2022-10-12T17:45:09.475Z,0.01
2022-10-12T17:49:09.257Z,0.01
2022-10-12T17:53:08.861Z,0.74
2022-10-12T17:57:09.794Z,0.73
2022-10-12T18:01:10.763Z,0.73
2022-10-12T18:05:09.119Z,0.01
2022-10-12T18:09:09.619Z,0.01
2022-10-12T18:13:09.364Z,0.75
2022-10-12T18:17:09.191Z,0.01
2022-10-12T18:21:09.542Z,0.01
2022-10-12T18:25:12.480Z,0.01
2022-10-12T18:29:09.829Z,0.01
2022-10-12T18:33:08.910Z,0.01
2022-10-12T18:37:09.097Z,0.73
2022-10-12T18:41:15.626Z,0.73
2022-10-12T18:45:09.151Z,0.01
2022-10-12T18:49:08.995Z,0.73
2022-10-12T18:53:09.351Z,0.01
2022-10-12T18:57:09.651Z,0.01
2022-10-12T19:01:10.321Z,0.01
2022-10-12T19:05:08.795Z,0.72
2022-10-12T19:09:09.086Z,0.01
2022-10-12T19:13:08.943Z,0.74
2022-10-12T19:17:08.958Z,0.01
2022-10-12T19:21:08.822Z,0.76
2022-10-12T19:25:09.567Z,0.01
2022-10-12T19:29:09.463Z,0.01
2022-10-12T19:33:08.846Z,0.01
2022-10-12T19:37:09.540Z,0.01
2022-10-12T19:41:15.148Z,0.01
2022-10-12T19:45:08.836Z,0.01
2022-10-12T19:49:09.437Z,0.01
2022-10-12T19:53:08.802Z,0.01
2022-10-12T19:57:08.856Z,0.01
2022-10-12T20:01:12.363Z,0.01
2022-10-12T20:05:09.302Z,0.82
2022-10-12T20:09:09.781Z,0.01
2022-10-12T20:13:09.594Z,0.01
2022-10-12T20:17:09.415Z,0.84
2022-10-12T20:21:08.885Z,0.84
2022-10-12T20:25:09.913Z,0.85
2022-10-12T20:29:10.067Z,0.01
2022-10-12T20:33:08.819Z,0.86
2022-10-12T20:37:09.639Z,0.86
2022-10-12T20:41:09.485Z,0.01
2022-10-12T20:45:08.863Z,0.01
2022-10-12T20:49:10.499Z,0.01
2022-10-12T20:53:09.685Z,0.01
2022-10-12T20:57:09.612Z,0.01
2022-10-12T21:01:11.808Z,0.01
2022-10-12T21:05:12.355Z,0.01
2022-10-12T21:09:09.428Z,0.01
2022-10-12T21:13:08.951Z,0.01
2022-10-12T21:17:08.815Z,0.01
2022-10-12T21:21:09.413Z,0.01
2022-10-12T21:25:08.860Z,0.01
2022-10-12T21:29:09.646Z,0.01
2022-10-12T21:33:08.849Z,0.01
2022-10-12T21:37:09.202Z,0.01
2022-10-12T21:41:08.914Z,0.01
2022-10-12T21:45:08.881Z,0.01
2022-10-12T21:49:08.942Z,0.01
2022-10-12T21:53:12.584Z,0.01
2022-10-12T21:57:08.840Z,0.01
2022-10-12T22:01:09.482Z,0.01
2022-10-12T22:05:08.715Z,0.01
2022-10-12T22:09:09.373Z,0.01
2022-10-12T22:13:09.471Z,0.01
2022-10-12T22:17:09.269Z,0.01
2022-10-12T22:21:09.672Z,0.05
2022-10-12T22:25:08.822Z,0.05
2022-10-12T22:29:09.266Z,2.44
2022-10-12T22:33:09.558Z,2.44
2022-10-12T22:37:09.533Z,2.44
2022-10-12T22:41:09.586Z,2.44
2022-10-12T22:45:09.292Z,2.44
2022-10-12T22:49:09.092Z,2.44
2022-10-12T22:53:09.501Z,2.44
2022-10-12T22:57:09.617Z,2.44
2022-10-12T23:01:12.290Z,2.44
2022-10-12T23:05:09.866Z,2.44
2022-10-12T23:09:09.654Z,2.44
2022-10-12T23:13:09.613Z,2.44
2022-10-12T23:17:09.404Z,2.44
2022-10-12T23:21:09.776Z,2.44
2022-10-12T23:25:09.393Z,2.44
2022-10-12T23:29:09.797Z,2.44
2022-10-12T23:33:08.878Z,0.07
2022-10-12T23:37:09.519Z,0.07
2022-10-12T23:41:08.751Z,0.07
2022-10-12T23:45:08.978Z,0.07
2022-10-12T23:49:09.219Z,0.07
2022-10-12T23:53:09.513Z,0.07
2022-10-12T23:57:28.170Z,0.07
